sensor_id;sensor_type;location;lat;lon;timestamp;pressure;altitude;pressure_sealevel;temperature;humidity
17785;BME280;9016;53.582;10.062;2023-08-06T00:00:26;100703.78;;;19.33;82.37
17785;BME280;9016;53.582;10.062;2023-08-06T00:02:54;100706.50;;;19.33;83.33
17785;BME280;9016;53.582;10.062;2023-08-06T00:05:23;100709.44;;;19.30;84.51
17785;BME280;9016;53.582;10.062;2023-08-06T00:07:51;100703.34;;;19.28;84.44
17785;BME280;9016;53.582;10.062;2023-08-06T00:10:18;100707.78;;;19.19;84.61
17785;BME280;9016;53.582;10.062;2023-08-06T00:12:46;100702.88;;;19.05;83.49
17785;BME280;9016;53.582;10.062;2023-08-06T00:15:15;100701.00;;;19.06;85.55
17785;BME280;9016;53.582;10.062;2023-08-06T00:17:44;100697.59;;;19.04;85.94
17785;BME280;9016;53.582;10.062;2023-08-06T00:20:12;100694.63;;;19.07;86.16
17785;BME280;9016;53.582;10.062;2023-08-06T00:22:40;100700.75;;;18.99;86.59
17785;BME280;9016;53.582;10.062;2023-08-06T00:25:08;100703.59;;;18.98;87.00
17785;BME280;9016;53.582;10.062;2023-08-06T00:27:36;100692.97;;;18.87;87.00
17785;BME280;9016;53.582;10.062;2023-08-06T00:30:05;100685.44;;;18.90;86.04
17785;BME280;9016;53.582;10.062;2023-08-06T00:32:34;100684.31;;;18.83;86.37
17785;BME280;9016;53.582;10.062;2023-08-06T00:35:04;100682.03;;;18.78;88.17
17785;BME280;9016;53.582;10.062;2023-08-06T00:37:32;100679.34;;;18.78;87.67
17785;BME280;9016;53.582;10.062;2023-08-06T00:40:00;100673.41;;;18.75;87.79
17785;BME280;9016;53.582;10.062;2023-08-06T00:42:28;100668.47;;;18.61;89.77
17785;BME280;9016;53.582;10.062;2023-08-06T00:44:56;100666.03;;;18.67;90.10
17785;BME280;9016;53.582;10.062;2023-08-06T00:47:24;100667.44;;;18.71;89.44
17785;BME280;9016;53.582;10.062;2023-08-06T00:49:53;100663.91;;;18.52;91.14
17785;BME280;9016;53.582;10.062;2023-08-06T00:52:23;100665.78;;;18.51;91.89
17785;BME280;9016;53.582;10.062;2023-08-06T00:54:51;100658.66;;;18.60;91.23
17785;BME280;9016;53.582;10.062;2023-08-06T00:57:20;100646.88;;;18.61;91.45
17785;BME280;9016;53.582;10.062;2023-08-06T00:59:49;100640.63;;;18.60;91.82
17785;BME280;9016;53.582;10.062;2023-08-06T01:02:17;100639.03;;;18.58;91.95
17785;BME280;9016;53.582;10.062;2023-08-06T01:04:45;100634.66;;;18.57;91.90
17785;BME280;9016;53.582;10.062;2023-08-06T01:07:21;100637.63;;;18.54;92.66
17785;BME280;9016;53.582;10.062;2023-08-06T01:09:59;100634.19;;;18.61;91.83
17785;BME280;9016;53.582;10.062;2023-08-06T01:12:40;100638.78;;;18.61;91.59
17785;BME280;9016;53.582;10.062;2023-08-06T01:15:15;100639.59;;;18.71;92.05
17785;BME280;9016;53.582;10.062;2023-08-06T01:17:46;100641.88;;;18.66;91.59
17785;BME280;9016;53.582;10.062;2023-08-06T01:20:14;100632.19;;;18.73;91.78
17785;BME280;9016;53.582;10.062;2023-08-06T01:22:45;100616.41;;;18.68;92.14
17785;BME280;9016;53.582;10.062;2023-08-06T01:25:15;100613.03;;;18.66;91.16
17785;BME280;9016;53.582;10.062;2023-08-06T01:27:47;100612.63;;;18.52;92.37
17785;BME280;9016;53.582;10.062;2023-08-06T01:30:17;100603.56;;;18.53;92.71
17785;BME280;9016;53.582;10.062;2023-08-06T01:32:49;100596.41;;;18.61;92.35
17785;BME280;9016;53.582;10.062;2023-08-06T01:35:19;100604.13;;;18.56;91.64
17785;BME280;9016;53.582;10.062;2023-08-06T01:37:48;100604.81;;;18.58;92.50
17785;BME280;9016;53.582;10.062;2023-08-06T01:40:16;100604.13;;;18.47;92.54
17785;BME280;9016;53.582;10.062;2023-08-06T01:42:44;100600.31;;;18.49;93.62
17785;BME280;9016;53.582;10.062;2023-08-06T01:45:12;100604.69;;;18.50;93.70
17785;BME280;9016;53.582;10.062;2023-08-06T01:47:40;100604.13;;;18.56;93.51
17785;BME280;9016;53.582;10.062;2023-08-06T01:50:09;100600.13;;;18.60;92.74
17785;BME280;9016;53.582;10.062;2023-08-06T01:52:37;100604.13;;;18.56;93.34
17785;BME280;9016;53.582;10.062;2023-08-06T01:55:07;100591.19;;;18.60;94.77
17785;BME280;9016;53.582;10.062;2023-08-06T01:57:34;100592.75;;;18.53;94.09
17785;BME280;9016;53.582;10.062;2023-08-06T02:00:03;100587.66;;;18.50;94.41
17785;BME280;9016;53.582;10.062;2023-08-06T02:02:31;100580.16;;;18.44;94.01
17785;BME280;9016;53.582;10.062;2023-08-06T02:05:00;100580.41;;;18.50;93.50
17785;BME280;9016;53.582;10.062;2023-08-06T02:07:28;100588.50;;;18.50;93.52
17785;BME280;9016;53.582;10.062;2023-08-06T02:09:56;100578.16;;;18.46;93.44
17785;BME280;9016;53.582;10.062;2023-08-06T02:12:26;100578.44;;;18.33;94.47
17785;BME280;9016;53.582;10.062;2023-08-06T02:14:53;100570.75;;;18.38;94.37
17785;BME280;9016;53.582;10.062;2023-08-06T02:17:21;100580.31;;;18.42;93.58
17785;BME280;9016;53.582;10.062;2023-08-06T02:19:49;100574.06;;;18.42;93.00
17785;BME280;9016;53.582;10.062;2023-08-06T02:22:17;100571.47;;;18.40;93.27
17785;BME280;9016;53.582;10.062;2023-08-06T02:24:45;100566.97;;;18.31;93.15
17785;BME280;9016;53.582;10.062;2023-08-06T02:27:13;100568.22;;;18.37;93.04
17785;BME280;9016;53.582;10.062;2023-08-06T02:29:42;100571.03;;;18.35;92.54
17785;BME280;9016;53.582;10.062;2023-08-06T02:32:11;100566.50;;;18.36;92.89
17785;BME280;9016;53.582;10.062;2023-08-06T02:34:39;100569.66;;;18.22;93.28
17785;BME280;9016;53.582;10.062;2023-08-06T02:37:07;100558.03;;;18.12;94.93
17785;BME280;9016;53.582;10.062;2023-08-06T02:39:35;100553.63;;;18.20;94.75
17785;BME280;9016;53.582;10.062;2023-08-06T02:42:06;100560.00;;;18.29;94.41
17785;BME280;9016;53.582;10.062;2023-08-06T02:44:34;100540.16;;;18.20;93.19
17785;BME280;9016;53.582;10.062;2023-08-06T02:47:04;100544.84;;;18.18;94.57
17785;BME280;9016;53.582;10.062;2023-08-06T02:49:32;100536.59;;;18.20;93.63
17785;BME280;9016;53.582;10.062;2023-08-06T02:52:00;100540.84;;;18.22;93.85
17785;BME280;9016;53.582;10.062;2023-08-06T02:54:28;100538.44;;;18.19;93.45
17785;BME280;9016;53.582;10.062;2023-08-06T02:56:56;100542.13;;;18.18;93.02
17785;BME280;9016;53.582;10.062;2023-08-06T02:59:24;100539.44;;;18.28;92.60
17785;BME280;9016;53.582;10.062;2023-08-06T03:01:52;100539.88;;;18.14;93.41
17785;BME280;9016;53.582;10.062;2023-08-06T03:04:22;100532.63;;;18.14;93.77
17785;BME280;9016;53.582;10.062;2023-08-06T03:06:50;100524.94;;;18.19;94.05
17785;BME280;9016;53.582;10.062;2023-08-06T03:09:18;100523.25;;;18.18;93.22
17785;BME280;9016;53.582;10.062;2023-08-06T03:11:46;100527.50;;;18.21;93.55
17785;BME280;9016;53.582;10.062;2023-08-06T03:14:14;100528.91;;;18.15;93.58
17785;BME280;9016;53.582;10.062;2023-08-06T03:16:42;100537.31;;;18.22;93.38
17785;BME280;9016;53.582;10.062;2023-08-06T03:19:10;100528.03;;;18.24;92.60
17785;BME280;9016;53.582;10.062;2023-08-06T03:21:39;100531.03;;;18.21;92.55
17785;BME280;9016;53.582;10.062;2023-08-06T03:24:07;100528.22;;;18.13;92.89
17785;BME280;9016;53.582;10.062;2023-08-06T03:26:35;100524.38;;;18.16;92.70
17785;BME280;9016;53.582;10.062;2023-08-06T03:29:03;100521.38;;;18.28;91.60
17785;BME280;9016;53.582;10.062;2023-08-06T03:31:31;100525.22;;;18.26;91.20
17785;BME280;9016;53.582;10.062;2023-08-06T03:33:59;100518.69;;;18.19;91.24
17785;BME280;9016;53.582;10.062;2023-08-06T03:36:26;100512.56;;;18.26;90.45
17785;BME280;9016;53.582;10.062;2023-08-06T03:38:56;100511.75;;;18.26;89.75
17785;BME280;9016;53.582;10.062;2023-08-06T03:41:24;100509.16;;;18.24;89.91
17785;BME280;9016;53.582;10.062;2023-08-06T03:43:52;100505.91;;;18.21;89.83
17785;BME280;9016;53.582;10.062;2023-08-06T03:46:19;100500.97;;;18.16;88.84
17785;BME280;9016;53.582;10.062;2023-08-06T03:48:47;100499.69;;;18.20;89.42
17785;BME280;9016;53.582;10.062;2023-08-06T03:51:15;100494.00;;;18.23;88.97
17785;BME280;9016;53.582;10.062;2023-08-06T03:53:43;100499.72;;;18.11;89.04
17785;BME280;9016;53.582;10.062;2023-08-06T03:56:13;100498.88;;;18.01;90.06
17785;BME280;9016;53.582;10.062;2023-08-06T03:58:40;100502.97;;;18.05;89.80
17785;BME280;9016;53.582;10.062;2023-08-06T04:01:09;100496.47;;;18.07;90.17
17785;BME280;9016;53.582;10.062;2023-08-06T04:03:37;100504.56;;;18.07;89.00
17785;BME280;9016;53.582;10.062;2023-08-06T04:06:06;100493.16;;;18.13;89.17
17785;BME280;9016;53.582;10.062;2023-08-06T04:08:34;100497.16;;;18.09;88.76
17785;BME280;9016;53.582;10.062;2023-08-06T04:11:02;100493.22;;;18.04;88.91
17785;BME280;9016;53.582;10.062;2023-08-06T04:13:31;100491.50;;;17.93;89.69
17785;BME280;9016;53.582;10.062;2023-08-06T04:16:01;100490.69;;;17.93;88.88
17785;BME280;9016;53.582;10.062;2023-08-06T04:18:29;100495.78;;;17.86;90.74
17785;BME280;9016;53.582;10.062;2023-08-06T04:20:57;100496.66;;;17.87;90.15
17785;BME280;9016;53.582;10.062;2023-08-06T04:23:25;100498.06;;;17.81;89.02
17785;BME280;9016;53.582;10.062;2023-08-06T04:25:56;100501.31;;;17.94;90.16
17785;BME280;9016;53.582;10.062;2023-08-06T04:28:24;100500.84;;;17.99;89.15
17785;BME280;9016;53.582;10.062;2023-08-06T04:30:53;100498.47;;;17.96;88.69
17785;BME280;9016;53.582;10.062;2023-08-06T04:33:21;100506.72;;;17.94;89.06
17785;BME280;9016;53.582;10.062;2023-08-06T04:35:53;100506.16;;;17.91;88.82
17785;BME280;9016;53.582;10.062;2023-08-06T04:38:23;100508.28;;;17.87;89.04
17785;BME280;9016;53.582;10.062;2023-08-06T04:40:51;100509.97;;;17.98;89.75
17785;BME280;9016;53.582;10.062;2023-08-06T04:43:19;100509.41;;;17.94;88.81
17785;BME280;9016;53.582;10.062;2023-08-06T04:45:47;100508.38;;;17.95;89.30
17785;BME280;9016;53.582;10.062;2023-08-06T04:48:16;100513.06;;;17.93;89.20
17785;BME280;9016;53.582;10.062;2023-08-06T04:50:45;100507.56;;;17.85;89.73
17785;BME280;9016;53.582;10.062;2023-08-06T04:53:13;100502.19;;;17.85;90.14
17785;BME280;9016;53.582;10.062;2023-08-06T04:55:41;100504.31;;;17.82;89.85
17785;BME280;9016;53.582;10.062;2023-08-06T04:58:10;100499.50;;;17.85;89.96
17785;BME280;9016;53.582;10.062;2023-08-06T05:00:38;100503.63;;;17.79;89.98
17785;BME280;9016;53.582;10.062;2023-08-06T05:03:06;100501.47;;;17.83;90.85
17785;BME280;9016;53.582;10.062;2023-08-06T05:05:35;100495.94;;;17.85;90.09
17785;BME280;9016;53.582;10.062;2023-08-06T05:08:03;100503.44;;;17.91;89.96
17785;BME280;9016;53.582;10.062;2023-08-06T05:10:31;100499.19;;;17.78;90.88
17785;BME280;9016;53.582;10.062;2023-08-06T05:12:59;100503.31;;;17.83;91.18
17785;BME280;9016;53.582;10.062;2023-08-06T05:15:27;100503.47;;;17.81;90.77
17785;BME280;9016;53.582;10.062;2023-08-06T05:17:55;100499.91;;;17.80;90.56
17785;BME280;9016;53.582;10.062;2023-08-06T05:20:23;100506.28;;;17.89;90.66
17785;BME280;9016;53.582;10.062;2023-08-06T05:22:52;100502.72;;;17.98;90.94
17785;BME280;9016;53.582;10.062;2023-08-06T05:25:20;100495.34;;;18.00;90.90
17785;BME280;9016;53.582;10.062;2023-08-06T05:27:48;100503.53;;;18.08;90.99
17785;BME280;9016;53.582;10.062;2023-08-06T05:30:16;100501.16;;;17.96;90.37
17785;BME280;9016;53.582;10.062;2023-08-06T05:32:44;100501.59;;;17.91;90.86
17785;BME280;9016;53.582;10.062;2023-08-06T05:35:12;100502.19;;;17.95;90.74
17785;BME280;9016;53.582;10.062;2023-08-06T05:37:41;100499.31;;;18.06;90.49
17785;BME280;9016;53.582;10.062;2023-08-06T05:40:10;100497.88;;;18.11;90.39
17785;BME280;9016;53.582;10.062;2023-08-06T05:42:39;100495.00;;;18.22;90.26
17785;BME280;9016;53.582;10.062;2023-08-06T05:45:08;100493.41;;;18.29;89.22
17785;BME280;9016;53.582;10.062;2023-08-06T05:47:36;100496.38;;;18.26;89.59
17785;BME280;9016;53.582;10.062;2023-08-06T05:50:05;100498.53;;;18.23;89.08
17785;BME280;9016;53.582;10.062;2023-08-06T05:52:33;100495.31;;;18.10;89.83
17785;BME280;9016;53.582;10.062;2023-08-06T05:55:01;100497.41;;;18.16;90.16
17785;BME280;9016;53.582;10.062;2023-08-06T05:57:30;100491.97;;;18.35;90.44
17785;BME280;9016;53.582;10.062;2023-08-06T05:59:58;100489.41;;;18.43;89.14
17785;BME280;9016;53.582;10.062;2023-08-06T06:02:26;100478.03;;;18.49;88.61
17785;BME280;9016;53.582;10.062;2023-08-06T06:04:54;100483.19;;;18.42;88.52
17785;BME280;9016;53.582;10.062;2023-08-06T06:07:22;100474.38;;;18.31;88.40
17785;BME280;9016;53.582;10.062;2023-08-06T06:09:50;100477.50;;;18.26;89.11
17785;BME280;9016;53.582;10.062;2023-08-06T06:12:18;100481.25;;;18.16;89.99
17785;BME280;9016;53.582;10.062;2023-08-06T06:14:47;100484.34;;;18.21;90.21
17785;BME280;9016;53.582;10.062;2023-08-06T06:17:15;100490.25;;;18.34;90.04
17785;BME280;9016;53.582;10.062;2023-08-06T06:19:43;100487.56;;;18.34;89.60
17785;BME280;9016;53.582;10.062;2023-08-06T06:22:11;100487.56;;;18.43;89.43
17785;BME280;9016;53.582;10.062;2023-08-06T06:24:39;100492.03;;;18.62;89.03
17785;BME280;9016;53.582;10.062;2023-08-06T06:27:07;100488.56;;;18.69;87.54
17785;BME280;9016;53.582;10.062;2023-08-06T06:29:35;100481.03;;;18.73;87.36
17785;BME280;9016;53.582;10.062;2023-08-06T06:32:05;100483.97;;;18.79;88.58
17785;BME280;9016;53.582;10.062;2023-08-06T06:34:33;100487.78;;;18.87;87.68
17785;BME280;9016;53.582;10.062;2023-08-06T06:37:01;100479.56;;;18.78;87.10
17785;BME280;9016;53.582;10.062;2023-08-06T06:39:29;100473.03;;;18.81;87.31
17785;BME280;9016;53.582;10.062;2023-08-06T06:41:57;100482.16;;;18.98;87.73
17785;BME280;9016;53.582;10.062;2023-08-06T06:44:24;100481.69;;;19.02;85.78
17785;BME280;9016;53.582;10.062;2023-08-06T06:46:53;100479.16;;;19.01;85.02
17785;BME280;9016;53.582;10.062;2023-08-06T06:49:22;100483.25;;;19.05;84.39
17785;BME280;9016;53.582;10.062;2023-08-06T06:51:50;100481.94;;;19.09;84.84
17785;BME280;9016;53.582;10.062;2023-08-06T06:54:19;100480.72;;;19.03;84.40
17785;BME280;9016;53.582;10.062;2023-08-06T06:56:47;100475.25;;;19.13;84.10
17785;BME280;9016;53.582;10.062;2023-08-06T06:59:14;100478.38;;;19.08;84.69
17785;BME280;9016;53.582;10.062;2023-08-06T07:01:42;100476.13;;;19.04;83.97
17785;BME280;9016;53.582;10.062;2023-08-06T07:04:10;100481.41;;;19.05;84.09
17785;BME280;9016;53.582;10.062;2023-08-06T07:06:40;100485.88;;;19.14;82.99
17785;BME280;9016;53.582;10.062;2023-08-06T07:09:08;100477.78;;;19.14;84.08
17785;BME280;9016;53.582;10.062;2023-08-06T07:11:35;100473.13;;;19.24;84.42
17785;BME280;9016;53.582;10.062;2023-08-06T07:14:03;100480.97;;;19.27;84.78
17785;BME280;9016;53.582;10.062;2023-08-06T07:16:31;100484.78;;;19.34;83.55
17785;BME280;9016;53.582;10.062;2023-08-06T07:19:00;100487.78;;;19.49;83.14
17785;BME280;9016;53.582;10.062;2023-08-06T07:21:28;100484.25;;;19.74;83.51
17785;BME280;9016;53.582;10.062;2023-08-06T07:23:57;100480.31;;;19.68;82.55
17785;BME280;9016;53.582;10.062;2023-08-06T07:26:26;100485.28;;;19.73;82.52
17785;BME280;9016;53.582;10.062;2023-08-06T07:28:54;100487.25;;;19.45;83.89
17785;BME280;9016;53.582;10.062;2023-08-06T07:31:21;100473.69;;;19.63;84.33
17785;BME280;9016;53.582;10.062;2023-08-06T07:33:50;100476.94;;;19.66;83.78
17785;BME280;9016;53.582;10.062;2023-08-06T07:36:18;100482.75;;;19.71;83.39
17785;BME280;9016;53.582;10.062;2023-08-06T07:38:45;100487.19;;;19.81;83.10
17785;BME280;9016;53.582;10.062;2023-08-06T07:41:16;100491.94;;;19.87;83.57
17785;BME280;9016;53.582;10.062;2023-08-06T07:43:44;100487.25;;;19.89;83.30
17785;BME280;9016;53.582;10.062;2023-08-06T07:46:12;100488.25;;;19.88;82.15
17785;BME280;9016;53.582;10.062;2023-08-06T07:48:40;100492.38;;;19.74;81.77
17785;BME280;9016;53.582;10.062;2023-08-06T07:51:08;100487.63;;;19.68;82.46
17785;BME280;9016;53.582;10.062;2023-08-06T07:53:36;100487.38;;;19.61;82.61
17785;BME280;9016;53.582;10.062;2023-08-06T07:56:04;100486.72;;;19.85;82.92
17785;BME280;9016;53.582;10.062;2023-08-06T07:58:34;100486.16;;;19.99;82.70
17785;BME280;9016;53.582;10.062;2023-08-06T08:01:02;100488.34;;;19.96;82.85
17785;BME280;9016;53.582;10.062;2023-08-06T08:03:31;100485.75;;;19.94;82.95
17785;BME280;9016;53.582;10.062;2023-08-06T08:05:59;100485.06;;;19.92;83.27
17785;BME280;9016;53.582;10.062;2023-08-06T08:08:27;100483.97;;;20.03;83.06
17785;BME280;9016;53.582;10.062;2023-08-06T08:10:55;100475.75;;;20.12;81.47
17785;BME280;9016;53.582;10.062;2023-08-06T08:13:25;100483.06;;;19.94;82.17
17785;BME280;9016;53.582;10.062;2023-08-06T08:15:57;100482.16;;;19.86;81.56
17785;BME280;9016;53.582;10.062;2023-08-06T08:18:26;100487.94;;;19.91;82.75
17785;BME280;9016;53.582;10.062;2023-08-06T08:20:54;100479.66;;;19.92;82.77
17785;BME280;9016;53.582;10.062;2023-08-06T08:23:22;100474.38;;;19.83;83.30
17785;BME280;9016;53.582;10.062;2023-08-06T08:25:50;100472.66;;;19.82;83.18
17785;BME280;9016;53.582;10.062;2023-08-06T08:28:18;100477.66;;;19.94;83.25
17785;BME280;9016;53.582;10.062;2023-08-06T08:30:46;100477.72;;;20.02;81.82
17785;BME280;9016;53.582;10.062;2023-08-06T08:33:15;100471.59;;;20.18;81.05
17785;BME280;9016;53.582;10.062;2023-08-06T08:35:45;100476.56;;;20.30;80.78
17785;BME280;9016;53.582;10.062;2023-08-06T08:38:13;100481.25;;;20.20;80.75
17785;BME280;9016;53.582;10.062;2023-08-06T08:40:45;100473.72;;;20.14;81.31
17785;BME280;9016;53.582;10.062;2023-08-06T08:43:14;100480.38;;;20.20;79.73
17785;BME280;9016;53.582;10.062;2023-08-06T08:45:43;100471.69;;;20.08;81.03
17785;BME280;9016;53.582;10.062;2023-08-06T08:48:18;100472.94;;;19.96;81.20
17785;BME280;9016;53.582;10.062;2023-08-06T08:50:47;100474.84;;;20.04;80.77
17785;BME280;9016;53.582;10.062;2023-08-06T08:53:17;100472.09;;;19.96;81.37
17785;BME280;9016;53.582;10.062;2023-08-06T08:55:47;100473.09;;;19.95;81.07
17785;BME280;9016;53.582;10.062;2023-08-06T08:58:15;100471.66;;;19.83;81.18
17785;BME280;9016;53.582;10.062;2023-08-06T09:00:45;100474.66;;;19.80;80.76
17785;BME280;9016;53.582;10.062;2023-08-06T09:03:14;100477.06;;;19.83;81.51
17785;BME280;9016;53.582;10.062;2023-08-06T09:05:44;100462.63;;;19.74;81.60
17785;BME280;9016;53.582;10.062;2023-08-06T09:08:17;100466.13;;;19.66;81.62
17785;BME280;9016;53.582;10.062;2023-08-06T09:10:48;100458.16;;;19.65;82.54
17785;BME280;9016;53.582;10.062;2023-08-06T09:13:16;100461.03;;;19.63;83.47
17785;BME280;9016;53.582;10.062;2023-08-06T09:15:44;100460.63;;;19.76;83.71
17785;BME280;9016;53.582;10.062;2023-08-06T09:18:12;100462.78;;;19.72;83.68
17785;BME280;9016;53.582;10.062;2023-08-06T09:20:40;100465.81;;;19.69;83.88
17785;BME280;9016;53.582;10.062;2023-08-06T09:23:10;100465.50;;;19.72;83.83
17785;BME280;9016;53.582;10.062;2023-08-06T09:25:39;100469.59;;;19.77;83.75
17785;BME280;9016;53.582;10.062;2023-08-06T09:28:08;100475.84;;;19.77;83.60
17785;BME280;9016;53.582;10.062;2023-08-06T09:30:37;100468.38;;;19.71;84.26
17785;BME280;9016;53.582;10.062;2023-08-06T09:33:08;100466.72;;;19.78;83.75
17785;BME280;9016;53.582;10.062;2023-08-06T09:35:37;100477.88;;;19.75;84.41
17785;BME280;9016;53.582;10.062;2023-08-06T09:38:10;100482.00;;;19.87;83.40
17785;BME280;9016;53.582;10.062;2023-08-06T09:40:38;100467.00;;;19.93;83.18
17785;BME280;9016;53.582;10.062;2023-08-06T09:43:07;100468.84;;;19.92;83.11
17785;BME280;9016;53.582;10.062;2023-08-06T09:45:36;100469.69;;;19.93;83.50
17785;BME280;9016;53.582;10.062;2023-08-06T09:48:05;100472.63;;;19.99;84.42
17785;BME280;9016;53.582;10.062;2023-08-06T09:50:35;100471.97;;;20.05;83.67
17785;BME280;9016;53.582;10.062;2023-08-06T09:53:05;100475.69;;;20.04;82.41
17785;BME280;9016;53.582;10.062;2023-08-06T09:55:35;100468.38;;;19.97;81.87
17785;BME280;9016;53.582;10.062;2023-08-06T09:58:04;100463.59;;;19.91;82.08
17785;BME280;9016;53.582;10.062;2023-08-06T10:00:33;100470.22;;;19.70;82.51
17785;BME280;9016;53.582;10.062;2023-08-06T10:03:06;100463.22;;;19.86;83.48
17785;BME280;9016;53.582;10.062;2023-08-06T10:05:36;100464.78;;;19.88;83.92
17785;BME280;9016;53.582;10.062;2023-08-06T10:08:06;100475.97;;;19.93;84.31
17785;BME280;9016;53.582;10.062;2023-08-06T10:10:36;100467.53;;;19.96;83.59
17785;BME280;9016;53.582;10.062;2023-08-06T10:13:06;100468.19;;;19.90;83.73
17785;BME280;9016;53.582;10.062;2023-08-06T10:15:36;100466.81;;;19.94;84.40
17785;BME280;9016;53.582;10.062;2023-08-06T10:18:05;100463.41;;;19.84;85.40
17785;BME280;9016;53.582;10.062;2023-08-06T10:20:34;100452.78;;;19.91;85.76
17785;BME280;9016;53.582;10.062;2023-08-06T10:23:03;100455.97;;;19.86;85.94
17785;BME280;9016;53.582;10.062;2023-08-06T10:25:33;100460.53;;;19.86;87.02
17785;BME280;9016;53.582;10.062;2023-08-06T10:28:07;100460.16;;;19.81;86.91
17785;BME280;9016;53.582;10.062;2023-08-06T10:30:41;100455.44;;;19.83;86.94
17785;BME280;9016;53.582;10.062;2023-08-06T10:33:09;100460.00;;;19.82;87.24
17785;BME280;9016;53.582;10.062;2023-08-06T10:35:40;100456.94;;;19.77;87.56
17785;BME280;9016;53.582;10.062;2023-08-06T10:38:11;100454.22;;;19.77;87.92
17785;BME280;9016;53.582;10.062;2023-08-06T10:40:42;100454.75;;;19.81;87.62
17785;BME280;9016;53.582;10.062;2023-08-06T10:43:25;100448.38;;;19.90;87.41
17785;BME280;9016;53.582;10.062;2023-08-06T10:45:54;100441.25;;;19.89;87.20
17785;BME280;9016;53.582;10.062;2023-08-06T10:48:33;100449.09;;;19.74;87.50
17785;BME280;9016;53.582;10.062;2023-08-06T10:51:03;100448.03;;;19.67;88.91
17785;BME280;9016;53.582;10.062;2023-08-06T10:53:32;100443.06;;;19.37;89.70
17785;BME280;9016;53.582;10.062;2023-08-06T10:56:00;100446.47;;;19.39;89.95
17785;BME280;9016;53.582;10.062;2023-08-06T10:58:32;100447.00;;;19.42;88.71
17785;BME280;9016;53.582;10.062;2023-08-06T11:01:01;100435.19;;;19.43;89.14
17785;BME280;9016;53.582;10.062;2023-08-06T11:03:29;100429.06;;;19.59;88.03
17785;BME280;9016;53.582;10.062;2023-08-06T11:05:57;100425.72;;;19.65;87.20
17785;BME280;9016;53.582;10.062;2023-08-06T11:08:25;100432.47;;;19.87;87.05
17785;BME280;9016;53.582;10.062;2023-08-06T11:10:53;100424.84;;;19.82;87.17
17785;BME280;9016;53.582;10.062;2023-08-06T11:13:29;100423.63;;;20.02;86.89
17785;BME280;9016;53.582;10.062;2023-08-06T11:16:00;100420.97;;;20.10;85.91
17785;BME280;9016;53.582;10.062;2023-08-06T11:18:28;100423.69;;;20.10;84.51
17785;BME280;9016;53.582;10.062;2023-08-06T11:20:58;100410.28;;;20.09;85.95
17785;BME280;9016;53.582;10.062;2023-08-06T11:23:27;100413.22;;;20.15;85.18
17785;BME280;9016;53.582;10.062;2023-08-06T11:25:56;100415.75;;;20.17;84.59
17785;BME280;9016;53.582;10.062;2023-08-06T11:28:25;100415.63;;;20.18;83.54
17785;BME280;9016;53.582;10.062;2023-08-06T11:30:53;100414.47;;;20.03;85.52
17785;BME280;9016;53.582;10.062;2023-08-06T11:33:27;100418.25;;;20.10;84.52
17785;BME280;9016;53.582;10.062;2023-08-06T11:35:57;100407.63;;;20.17;84.52
17785;BME280;9016;53.582;10.062;2023-08-06T11:38:25;100418.16;;;20.20;83.82
17785;BME280;9016;53.582;10.062;2023-08-06T11:40:54;100422.41;;;20.22;83.66
17785;BME280;9016;53.582;10.062;2023-08-06T11:43:22;100424.25;;;20.22;83.47
17785;BME280;9016;53.582;10.062;2023-08-06T11:45:50;100422.81;;;20.10;84.43
17785;BME280;9016;53.582;10.062;2023-08-06T11:48:20;100423.63;;;20.02;83.99
17785;BME280;9016;53.582;10.062;2023-08-06T11:50:54;100426.97;;;20.22;84.31
17785;BME280;9016;53.582;10.062;2023-08-06T11:53:27;100415.03;;;20.32;84.04
17785;BME280;9016;53.582;10.062;2023-08-06T11:55:55;100423.25;;;20.23;84.59
17785;BME280;9016;53.582;10.062;2023-08-06T11:58:23;100420.56;;;20.23;84.84
17785;BME280;9016;53.582;10.062;2023-08-06T12:00:51;100415.50;;;20.28;84.87
17785;BME280;9016;53.582;10.062;2023-08-06T12:03:20;100418.38;;;20.26;84.43
17785;BME280;9016;53.582;10.062;2023-08-06T12:05:55;100411.16;;;20.43;83.86
17785;BME280;9016;53.582;10.062;2023-08-06T12:08:26;100404.59;;;20.53;83.31
17785;BME280;9016;53.582;10.062;2023-08-06T12:10:54;100402.63;;;20.63;82.53
17785;BME280;9016;53.582;10.062;2023-08-06T12:13:22;100404.00;;;20.67;82.73
17785;BME280;9016;53.582;10.062;2023-08-06T12:15:50;100402.47;;;20.73;82.03
17785;BME280;9016;53.582;10.062;2023-08-06T12:18:20;100396.75;;;20.84;81.05
17785;BME280;9016;53.582;10.062;2023-08-06T12:20:48;100393.03;;;20.93;81.57
17785;BME280;9016;53.582;10.062;2023-08-06T12:23:18;100389.53;;;21.01;81.51
17785;BME280;9016;53.582;10.062;2023-08-06T12:25:46;100390.88;;;21.13;80.30
17785;BME280;9016;53.582;10.062;2023-08-06T12:28:14;100389.53;;;21.17;80.11
17785;BME280;9016;53.582;10.062;2023-08-06T12:30:42;100380.91;;;21.13;80.83
17785;BME280;9016;53.582;10.062;2023-08-06T12:33:11;100382.59;;;21.22;80.24
17785;BME280;9016;53.582;10.062;2023-08-06T12:35:39;100383.75;;;21.20;80.71
17785;BME280;9016;53.582;10.062;2023-08-06T12:38:07;100386.47;;;21.20;79.99
17785;BME280;9016;53.582;10.062;2023-08-06T12:40:36;100388.84;;;21.31;79.75
17785;BME280;9016;53.582;10.062;2023-08-06T12:43:08;100387.34;;;21.44;78.77
17785;BME280;9016;53.582;10.062;2023-08-06T12:45:36;100384.63;;;21.52;78.89
17785;BME280;9016;53.582;10.062;2023-08-06T12:48:04;100380.53;;;21.64;77.46
17785;BME280;9016;53.582;10.062;2023-08-06T12:50:32;100374.25;;;21.72;77.56
17785;BME280;9016;53.582;10.062;2023-08-06T12:53:01;100383.91;;;21.75;77.48
17785;BME280;9016;53.582;10.062;2023-08-06T12:55:30;100374.59;;;21.85;75.56
17785;BME280;9016;53.582;10.062;2023-08-06T12:58:00;100376.94;;;21.96;76.27